Terminal Aerodrome Forecast
Issued by NWS Austin/San Antonio, TX

Home | Current Version | Previous Version | Text Only | Print | Product List | Glossary On
Versions: 1 2 3 4 5 6 7 8 9 10 11 12 13 14 15 16 17 18 19
000
FTUS44 KEWX 032340
TAFAUS
TAF
KAUS 032340Z 0400/0506 11011KT P6SM SCT060 BKN100 BKN250
     FM040100 13010KT P6SM FEW250
     FM040900 16005KT P6SM BKN015
      TEMPO 0411/0413 BKN009
     FM041600 16010KT P6SM BKN050
     FM042100 15011KT P6SM SCT060 SCT100=

USA.gov is the U.S. government's official web portal to all federal, state and local government web resources and services.